createdAt,value
2019-03-13T00:00:44.946Z,15.83
2019-03-13T00:03:16.795Z,17.17
2019-03-13T00:05:46.490Z,13.50
2019-03-13T00:08:16.222Z,21.07
2019-03-13T00:10:45.974Z,14.63
2019-03-13T00:13:18.150Z,15.10
2019-03-13T00:15:49.710Z,13.13
2019-03-13T00:18:19.052Z,24.60
2019-03-13T00:20:51.975Z,12.33
2019-03-13T00:23:27.167Z,13.07
2019-03-13T00:25:56.786Z,16.43
2019-03-13T00:28:26.325Z,12.50
2019-03-13T00:30:55.968Z,12.20
2019-03-13T00:33:26.977Z,14.07
2019-03-13T00:35:57.999Z,14.47
2019-03-13T00:38:27.569Z,18.30
2019-03-13T00:40:57.217Z,17.43
2019-03-13T00:43:26.922Z,14.43
2019-03-13T00:45:56.586Z,19.13
2019-03-13T00:48:26.159Z,14.77
2019-03-13T00:50:55.782Z,16.90
2019-03-13T00:53:31.581Z,13.73
2019-03-13T00:56:03.152Z,19.90
2019-03-13T00:58:32.806Z,16.47
2019-03-13T01:01:20.077Z,15.93
2019-03-13T01:04:08.815Z,18.03
2019-03-13T01:06:46.987Z,17.03
2019-03-13T01:09:16.634Z,12.80
2019-03-13T01:11:47.595Z,18.30
2019-03-13T01:14:18.221Z,16.50
2019-03-13T01:16:48.117Z,19.63
2019-03-13T01:19:21.280Z,16.80
2019-03-13T01:21:50.862Z,16.27
2019-03-13T01:24:20.509Z,15.57
2019-03-13T01:26:52.024Z,15.07
2019-03-13T01:29:22.580Z,14.97
2019-03-13T01:32:09.798Z,12.63
2019-03-13T01:34:57.121Z,17.07
2019-03-13T01:37:26.909Z,12.07
2019-03-13T01:39:58.698Z,17.20
2019-03-13T01:42:28.327Z,10.53
2019-03-13T01:44:58.027Z,11.33
2019-03-13T01:47:31.048Z,10.20
2019-03-13T01:50:00.778Z,19.00
2019-03-13T01:52:32.336Z,10.43
2019-03-13T01:55:02.142Z,15.87
2019-03-13T01:57:31.649Z,7.80
2019-03-13T02:00:01.274Z,7.67
2019-03-13T02:02:32.617Z,12.13
2019-03-13T02:05:02.365Z,9.83
2019-03-13T02:07:32.077Z,14.30
2019-03-13T02:10:05.540Z,12.50
2019-03-13T02:12:38.570Z,12.17
2019-03-13T02:15:09.074Z,9.57
2019-03-13T02:17:38.672Z,17.50
2019-03-13T02:20:09.157Z,11.63
2019-03-13T02:22:38.848Z,11.53
2019-03-13T02:25:09.782Z,11.17
2019-03-13T02:27:41.302Z,9.93
2019-03-13T02:30:12.438Z,8.07
2019-03-13T02:32:42.112Z,6.87
2019-03-13T02:35:11.819Z,11.43
2019-03-13T02:37:41.496Z,8.93
2019-03-13T02:40:11.692Z,5.40
2019-03-13T02:42:41.580Z,7.77
2019-03-13T02:45:11.766Z,7.47
2019-03-13T02:47:41.478Z,11.70
2019-03-13T02:50:14.764Z,10.23
2019-03-13T02:52:44.492Z,9.17
2019-03-13T02:55:14.069Z,10.57
2019-03-13T02:57:43.673Z,11.17
2019-03-13T03:00:17.499Z,14.33
2019-03-13T03:02:51.686Z,8.33
2019-03-13T03:05:21.337Z,9.77
2019-03-13T03:07:52.123Z,7.30
2019-03-13T03:10:22.769Z,14.60
2019-03-13T03:12:54.656Z,13.97
2019-03-13T03:15:25.570Z,8.97
2019-03-13T03:17:56.360Z,9.17
2019-03-13T03:20:25.990Z,7.40
2019-03-13T03:22:55.735Z,15.73
2019-03-13T03:25:27.572Z,17.10
2019-03-13T03:27:57.204Z,12.80
2019-03-13T03:30:27.396Z,8.93
2019-03-13T03:32:59.772Z,8.50
2019-03-13T03:35:29.523Z,9.67
2019-03-13T03:37:59.110Z,8.67
2019-03-13T03:40:31.822Z,8.10
2019-03-13T03:43:03.105Z,8.50
2019-03-13T03:45:36.302Z,10.87
2019-03-13T03:48:07.369Z,11.93
2019-03-13T03:50:38.269Z,12.17
2019-03-13T03:53:08.256Z,13.17
2019-03-13T03:55:37.929Z,13.93
2019-03-13T03:58:12.260Z,11.30
2019-03-13T04:00:42.109Z,15.97
2019-03-13T04:03:17.412Z,13.03
2019-03-13T04:05:45.047Z,12.40
2019-03-13T04:08:14.742Z,8.93
2019-03-13T04:10:44.404Z,12.57
2019-03-13T04:13:15.699Z,11.37
2019-03-13T04:15:45.384Z,17.33
2019-03-13T04:18:15.021Z,20.33
2019-03-13T04:20:45.713Z,27.20
2019-03-13T04:23:16.483Z,21.80
2019-03-13T04:25:47.675Z,15.30
2019-03-13T04:28:17.329Z,11.87
2019-03-13T04:30:47.049Z,8.33
2019-03-13T04:33:18.354Z,10.00
2019-03-13T04:35:50.659Z,11.23
2019-03-13T04:38:24.141Z,12.60
2019-03-13T04:40:55.673Z,11.07
2019-03-13T04:43:25.007Z,11.63
2019-03-13T04:46:00.274Z,17.93
2019-03-13T04:48:30.005Z,11.03
2019-03-13T04:51:00.680Z,13.07
2019-03-13T04:53:30.337Z,11.37
2019-03-13T04:56:03.532Z,13.47
2019-03-13T04:58:36.300Z,12.90
2019-03-13T05:01:09.540Z,11.27
2019-03-13T05:03:39.224Z,41.57
2019-03-13T05:06:23.540Z,28.40
2019-03-13T05:09:23.210Z,14.63
2019-03-13T05:11:53.261Z,17.17
2019-03-13T05:14:26.797Z,15.03
2019-03-13T05:16:57.542Z,19.07
2019-03-13T05:19:27.183Z,16.00
2019-03-13T05:21:57.022Z,19.87
2019-03-13T05:24:27.975Z,17.37
2019-03-13T05:26:59.030Z,30.53
2019-03-13T05:29:29.654Z,34.90
2019-03-13T05:32:02.213Z,28.20
2019-03-13T05:34:34.000Z,36.17
2019-03-13T05:37:05.259Z,32.97
2019-03-13T05:39:38.561Z,32.70
2019-03-13T05:42:08.378Z,36.07
2019-03-13T05:44:41.426Z,41.30
2019-03-13T05:47:11.239Z,40.10
2019-03-13T05:49:40.922Z,38.93
2019-03-13T05:52:13.825Z,53.40
2019-03-13T05:54:45.793Z,48.37
2019-03-13T05:57:17.536Z,43.17
2019-03-13T05:59:50.143Z,38.93
2019-03-13T06:02:19.753Z,61.13
2019-03-13T06:04:51.776Z,50.43
2019-03-13T06:07:23.397Z,38.33
2019-03-13T06:10:00.665Z,37.37
2019-03-13T06:12:31.520Z,36.70
2019-03-13T06:15:03.524Z,37.87
2019-03-13T06:17:33.782Z,37.50
2019-03-13T06:20:04.759Z,40.63
2019-03-13T06:22:34.339Z,29.73
2019-03-13T06:25:05.348Z,23.23
2019-03-13T06:27:36.049Z,21.33
2019-03-13T06:30:11.765Z,16.73
2019-03-13T06:32:41.537Z,21.63
2019-03-13T06:35:11.461Z,19.33
2019-03-13T06:37:45.290Z,19.50
2019-03-13T06:40:15.149Z,21.30
2019-03-13T06:42:46.119Z,17.90
2019-03-13T06:45:18.293Z,19.57
2019-03-13T06:47:49.475Z,16.40
2019-03-13T06:50:21.534Z,11.47
2019-03-13T06:52:50.916Z,10.67
2019-03-13T06:55:24.207Z,10.43
2019-03-13T06:57:55.767Z,10.17
2019-03-13T07:00:45.261Z,7.13
2019-03-13T07:03:36.581Z,6.57
2019-03-13T07:06:16.913Z,5.90
2019-03-13T07:09:08.292Z,6.40
2019-03-13T07:11:55.603Z,5.30
2019-03-13T07:14:46.978Z,3.20
2019-03-13T07:17:25.210Z,3.80
2019-03-13T07:20:16.712Z,4.70
2019-03-13T07:23:07.217Z,4.50
2019-03-13T07:26:00.308Z,6.33
2019-03-13T07:28:37.872Z,24.47
2019-03-13T07:31:22.365Z,3.97
2019-03-13T07:34:19.432Z,3.60
2019-03-13T07:37:03.124Z,3.63
2019-03-13T07:39:51.932Z,6.53
2019-03-13T07:42:46.397Z,8.23
2019-03-13T07:45:36.790Z,4.60
2019-03-13T07:48:25.214Z,6.07
2019-03-13T07:51:12.050Z,5.77
2019-03-13T07:53:50.848Z,16.53
2019-03-13T07:56:50.380Z,5.87
2019-03-13T07:59:56.928Z,4.93
2019-03-13T08:02:46.409Z,4.20
2019-03-13T08:05:27.964Z,6.13
2019-03-13T08:08:15.477Z,5.47
2019-03-13T08:11:20.979Z,6.83
2019-03-13T08:14:12.075Z,6.00
2019-03-13T08:17:09.017Z,5.70
2019-03-13T08:20:18.992Z,7.00
2019-03-13T08:23:07.414Z,8.57
2019-03-13T08:25:51.639Z,15.83
2019-03-13T08:28:43.283Z,10.63
2019-03-13T08:31:29.845Z,5.90
2019-03-13T08:34:23.864Z,5.57
2019-03-13T08:37:18.084Z,4.97
2019-03-13T08:40:09.626Z,6.27
2019-03-13T08:43:01.687Z,4.60
2019-03-13T08:46:06.155Z,4.57
2019-03-13T08:48:54.994Z,4.60
2019-03-13T08:52:00.629Z,4.87
2019-03-13T08:55:00.697Z,4.27
2019-03-13T08:58:12.355Z,5.00
2019-03-13T09:01:12.016Z,3.70
2019-03-13T09:04:07.695Z,4.20
2019-03-13T09:07:10.913Z,2.10
2019-03-13T09:09:52.031Z,3.10
2019-03-13T09:12:55.464Z,3.57
2019-03-13T09:15:42.577Z,4.23
2019-03-13T09:18:37.521Z,4.10
2019-03-13T09:21:46.496Z,4.40
2019-03-13T09:24:34.515Z,2.10
2019-03-13T09:27:35.322Z,2.80
2019-03-13T09:30:28.427Z,5.03
2019-03-13T09:33:25.071Z,2.40
2019-03-13T09:36:16.709Z,5.13
2019-03-13T09:39:02.613Z,2.37
2019-03-13T09:41:41.857Z,2.40
2019-03-13T09:44:38.909Z,3.20
2019-03-13T09:47:36.488Z,2.40
2019-03-13T09:50:14.683Z,3.73
2019-03-13T09:53:04.076Z,3.50
2019-03-13T09:55:52.636Z,3.50
2019-03-13T09:58:47.535Z,3.50
2019-03-13T10:01:53.598Z,3.13
2019-03-13T10:04:42.208Z,2.10
2019-03-13T10:07:49.306Z,6.83
2019-03-13T10:10:42.094Z,6.00
2019-03-13T10:13:39.379Z,4.00
2019-03-13T10:16:28.012Z,4.30
2019-03-13T10:19:15.019Z,3.50
2019-03-13T10:22:03.478Z,3.67
2019-03-13T10:24:44.823Z,2.93
2019-03-13T10:27:24.402Z,2.90
2019-03-13T10:30:02.759Z,4.60
2019-03-13T10:32:52.867Z,3.57
2019-03-13T10:35:31.979Z,6.70
2019-03-13T10:38:22.494Z,3.83
2019-03-13T10:41:17.440Z,2.53
2019-03-13T10:44:04.631Z,2.17
2019-03-13T10:46:46.212Z,2.00
2019-03-13T10:49:29.490Z,4.63
2019-03-13T10:52:28.581Z,2.80
2019-03-13T10:55:22.849Z,5.67
2019-03-13T10:58:17.286Z,6.97
2019-03-13T11:01:11.303Z,2.63
2019-03-13T11:03:59.204Z,3.47
2019-03-13T11:06:55.037Z,7.27
2019-03-13T11:09:25.775Z,2.37
2019-03-13T11:12:02.419Z,6.47
2019-03-13T11:14:47.836Z,2.47
2019-03-13T11:17:36.398Z,5.70
2019-03-13T11:20:30.526Z,5.23
2019-03-13T11:23:24.859Z,4.77
2019-03-13T11:26:07.299Z,3.33
2019-03-13T11:29:01.241Z,5.17
2019-03-13T11:31:49.708Z,2.03
2019-03-13T11:34:56.299Z,2.90
2019-03-13T11:37:58.418Z,3.83
2019-03-13T11:40:45.932Z,2.30
2019-03-13T11:43:34.398Z,3.63
2019-03-13T11:46:21.981Z,2.47
2019-03-13T11:49:09.342Z,3.43
2019-03-13T11:52:08.036Z,4.80
2019-03-13T11:55:04.813Z,3.07
2019-03-13T11:58:06.437Z,3.13
2019-03-13T12:00:47.673Z,3.33
2019-03-13T12:03:41.817Z,1.90
2019-03-13T12:06:21.316Z,4.17
2019-03-13T12:09:10.014Z,5.53
2019-03-13T12:12:02.228Z,3.43
2019-03-13T12:14:43.701Z,3.60
2019-03-13T12:17:37.024Z,4.03
2019-03-13T12:20:33.156Z,3.67
2019-03-13T12:23:31.580Z,7.07
2019-03-13T12:26:18.741Z,8.13
2019-03-13T12:29:10.272Z,3.60
2019-03-13T12:32:04.981Z,3.57
2019-03-13T12:34:52.339Z,4.87
2019-03-13T12:37:35.101Z,5.20
2019-03-13T12:40:37.638Z,3.97
2019-03-13T12:43:38.757Z,3.83
2019-03-13T12:46:26.985Z,2.67
2019-03-13T12:49:24.899Z,3.60
2019-03-13T12:52:09.658Z,4.07
2019-03-13T12:54:58.337Z,5.27
2019-03-13T12:57:46.942Z,3.87
2019-03-13T13:00:37.356Z,7.20
2019-03-13T13:03:20.376Z,5.90
2019-03-13T13:06:09.100Z,5.07
2019-03-13T13:08:57.011Z,4.67
2019-03-13T13:11:55.822Z,4.70
2019-03-13T13:14:52.459Z,5.33
2019-03-13T13:17:38.959Z,6.67
2019-03-13T13:20:10.663Z,7.60
2019-03-13T13:22:40.507Z,5.73
2019-03-13T13:25:12.755Z,6.40
2019-03-13T13:27:43.837Z,3.30
2019-03-13T13:30:14.471Z,4.73
2019-03-13T13:32:44.163Z,4.47
2019-03-13T13:35:14.129Z,8.03
2019-03-13T13:37:44.196Z,5.13
2019-03-13T13:40:14.256Z,4.30
2019-03-13T13:42:43.919Z,6.67
2019-03-13T13:45:43.100Z,3.70
2019-03-13T13:48:17.086Z,6.40
2019-03-13T13:50:47.216Z,4.03
2019-03-13T13:53:17.138Z,5.23
2019-03-13T13:55:47.968Z,6.33
2019-03-13T13:58:17.826Z,6.97
2019-03-13T14:00:47.858Z,5.47
2019-03-13T14:03:17.545Z,4.53
2019-03-13T14:05:47.229Z,5.47
2019-03-13T14:08:16.945Z,6.83
2019-03-13T14:10:46.809Z,6.83
2019-03-13T14:13:17.094Z,7.53
2019-03-13T14:15:47.344Z,4.97
2019-03-13T14:18:17.289Z,3.57
2019-03-13T14:20:47.203Z,3.90
2019-03-13T14:23:17.190Z,4.40
2019-03-13T14:25:47.021Z,5.00
2019-03-13T14:28:16.627Z,5.53
2019-03-13T14:30:46.272Z,5.37
2019-03-13T14:33:16.146Z,4.40
2019-03-13T14:35:46.563Z,8.33
2019-03-13T14:38:18.142Z,6.33
2019-03-13T14:40:47.968Z,8.37
2019-03-13T14:43:18.329Z,4.87
2019-03-13T14:45:48.388Z,7.13
2019-03-13T14:48:17.988Z,7.40
2019-03-13T14:50:47.704Z,11.23
2019-03-13T14:53:17.549Z,6.63
2019-03-13T14:55:47.239Z,5.43
2019-03-13T14:58:16.830Z,8.83
2019-03-13T15:00:46.613Z,9.10
2019-03-13T15:03:16.761Z,5.83
2019-03-13T15:05:46.535Z,5.73
2019-03-13T15:08:18.154Z,6.40
2019-03-13T15:10:47.999Z,7.03
2019-03-13T15:13:17.785Z,8.37
2019-03-13T15:15:47.565Z,4.97
2019-03-13T15:18:17.337Z,7.83
2019-03-13T15:20:47.419Z,9.13
2019-03-13T15:23:17.309Z,7.20
2019-03-13T15:25:48.870Z,8.40
2019-03-13T15:28:18.575Z,6.73
2019-03-13T15:30:48.385Z,7.63
2019-03-13T15:33:18.020Z,6.37
2019-03-13T15:35:47.911Z,6.93
2019-03-13T15:38:17.987Z,8.40
2019-03-13T15:40:47.897Z,6.67
2019-03-13T15:43:17.803Z,9.70
2019-03-13T15:45:47.570Z,5.63
2019-03-13T15:48:18.717Z,6.63
2019-03-13T15:50:48.486Z,6.40
2019-03-13T15:53:18.220Z,8.67
2019-03-13T15:55:48.095Z,7.73
2019-03-13T15:58:17.906Z,7.23
2019-03-13T16:00:47.751Z,13.80
2019-03-13T16:03:17.520Z,12.90
2019-03-13T16:05:47.273Z,5.93
2019-03-13T16:08:17.070Z,8.27
2019-03-13T16:10:46.931Z,8.27
2019-03-13T16:13:16.772Z,9.53
2019-03-13T16:15:46.691Z,7.93
2019-03-13T16:18:16.304Z,8.00
2019-03-13T16:20:46.170Z,13.70
2019-03-13T16:23:17.366Z,10.03
2019-03-13T16:25:47.034Z,15.63
2019-03-13T16:28:16.752Z,9.03
2019-03-13T16:30:46.657Z,9.07
2019-03-13T16:33:16.731Z,9.00
2019-03-13T16:35:46.803Z,12.13
2019-03-13T16:38:16.614Z,14.30
2019-03-13T16:40:47.666Z,6.27
2019-03-13T16:43:18.371Z,8.53
2019-03-13T16:45:48.099Z,9.63
2019-03-13T16:48:17.966Z,7.73
2019-03-13T16:50:47.772Z,23.93
2019-03-13T16:53:17.616Z,15.13
2019-03-13T16:55:47.208Z,6.93
2019-03-13T16:58:16.931Z,28.53
2019-03-13T17:00:46.663Z,12.57
2019-03-13T17:03:16.429Z,10.20
2019-03-13T17:05:46.098Z,8.70
2019-03-13T17:08:15.887Z,11.07
2019-03-13T17:10:45.635Z,21.90
2019-03-13T17:13:15.433Z,11.40
2019-03-13T17:15:45.049Z,11.77
2019-03-13T17:18:14.831Z,7.53
2019-03-13T17:20:44.598Z,9.33
2019-03-13T17:23:14.429Z,18.93
2019-03-13T17:25:44.168Z,14.73
2019-03-13T17:28:13.941Z,32.20
2019-03-13T17:30:43.613Z,31.33
2019-03-13T17:33:13.270Z,22.40
2019-03-13T17:35:43.130Z,22.47
2019-03-13T17:38:13.175Z,17.93
2019-03-13T17:40:42.795Z,26.97
2019-03-13T17:43:12.527Z,23.83
2019-03-13T17:45:42.334Z,18.03
2019-03-13T17:48:12.102Z,18.33
2019-03-13T17:50:41.824Z,15.43
2019-03-13T17:53:11.470Z,20.07
2019-03-13T17:55:41.284Z,19.67
2019-03-13T17:58:10.946Z,13.20
2019-03-13T18:00:50.649Z,18.37
2019-03-13T18:03:20.697Z,14.70
2019-03-13T18:05:50.411Z,17.77
2019-03-13T18:08:20.015Z,14.50
2019-03-13T18:10:50.119Z,14.47
2019-03-13T18:13:19.971Z,12.63
2019-03-13T18:15:49.694Z,14.23
2019-03-13T18:18:19.477Z,11.43
2019-03-13T18:20:49.319Z,17.20
2019-03-13T18:23:19.018Z,14.43
2019-03-13T18:25:49.246Z,11.77
2019-03-13T18:28:18.994Z,11.87
2019-03-13T18:30:48.773Z,16.67
2019-03-13T18:33:18.455Z,12.30
2019-03-13T18:35:48.176Z,14.10
2019-03-13T18:38:17.974Z,26.20
2019-03-13T18:40:47.622Z,11.27
2019-03-13T18:43:17.352Z,15.13
2019-03-13T18:45:47.050Z,18.63
2019-03-13T18:48:16.794Z,12.50
2019-03-13T18:50:46.397Z,12.83
2019-03-13T18:53:16.114Z,12.90
2019-03-13T18:55:45.887Z,10.33
2019-03-13T18:58:15.567Z,11.00
2019-03-13T19:00:45.187Z,10.27
2019-03-13T19:03:14.973Z,8.97
2019-03-13T19:05:44.591Z,12.93
2019-03-13T19:08:14.214Z,11.43
2019-03-13T19:10:43.954Z,12.40
2019-03-13T19:13:13.664Z,13.13
2019-03-13T19:15:43.355Z,11.03
2019-03-13T19:18:13.203Z,11.63
2019-03-13T19:20:43.081Z,13.30
2019-03-13T19:23:14.277Z,12.90
2019-03-13T19:25:44.214Z,16.50
2019-03-13T19:28:13.853Z,48.33
2019-03-13T19:30:43.488Z,27.03
2019-03-13T19:33:13.261Z,12.50
2019-03-13T19:35:43.027Z,13.37
2019-03-13T19:38:12.933Z,12.73
2019-03-13T19:40:42.815Z,11.87
2019-03-13T19:43:12.389Z,12.97
2019-03-13T19:45:42.675Z,12.50
2019-03-13T19:48:12.556Z,13.53
2019-03-13T19:50:42.279Z,15.00
2019-03-13T19:53:12.169Z,15.83
2019-03-13T19:55:42.047Z,16.77
2019-03-13T19:58:11.740Z,21.93
2019-03-13T20:00:42.321Z,24.30
2019-03-13T20:03:12.216Z,18.33
2019-03-13T20:05:45.872Z,15.97
2019-03-13T20:08:14.112Z,16.73
2019-03-13T20:10:44.276Z,13.97
2019-03-13T20:13:13.966Z,14.73
2019-03-13T20:15:43.689Z,22.90
2019-03-13T20:18:13.342Z,26.47
2019-03-13T20:20:43.147Z,17.60
2019-03-13T20:23:12.914Z,17.23
2019-03-13T20:25:42.826Z,22.57
2019-03-13T20:28:12.383Z,16.40
2019-03-13T20:30:42.125Z,14.37
2019-03-13T20:33:12.019Z,14.57
2019-03-13T20:35:41.843Z,15.60
2019-03-13T20:38:11.446Z,18.50
2019-03-13T20:40:41.191Z,16.13
2019-03-13T20:43:10.989Z,19.93
2019-03-13T20:45:40.812Z,17.67
2019-03-13T20:48:10.574Z,15.63
2019-03-13T20:50:40.293Z,14.97
2019-03-13T20:53:09.980Z,21.23
2019-03-13T20:55:39.440Z,18.07
2019-03-13T20:58:09.142Z,15.80
2019-03-13T21:00:38.787Z,21.57
2019-03-13T21:03:08.637Z,17.23
2019-03-13T21:05:38.306Z,18.37
2019-03-13T21:08:08.153Z,21.90
2019-03-13T21:10:37.784Z,20.63
2019-03-13T21:13:07.524Z,18.20
2019-03-13T21:15:37.153Z,15.87
2019-03-13T21:18:07.027Z,17.30
2019-03-13T21:20:36.942Z,14.30
2019-03-13T21:23:06.836Z,15.13
2019-03-13T21:25:38.748Z,18.67
2019-03-13T21:28:08.352Z,16.83
2019-03-13T21:30:38.128Z,16.87
2019-03-13T21:33:08.000Z,17.77
2019-03-13T21:35:37.681Z,16.90
2019-03-13T21:38:07.350Z,19.17
2019-03-13T21:40:36.982Z,14.27
2019-03-13T21:43:06.709Z,14.93
2019-03-13T21:45:41.463Z,16.67
2019-03-13T21:48:07.878Z,18.70
2019-03-13T21:50:37.618Z,14.97
2019-03-13T21:53:07.363Z,17.47
2019-03-13T21:55:37.270Z,18.83
2019-03-13T21:58:07.127Z,18.33
2019-03-13T22:00:37.112Z,19.07
2019-03-13T22:03:07.082Z,15.43
2019-03-13T22:05:36.831Z,19.40
2019-03-13T22:08:06.430Z,18.33
2019-03-13T22:10:36.243Z,19.63
2019-03-13T22:13:06.040Z,18.83
2019-03-13T22:15:35.946Z,24.33
2019-03-13T22:18:05.802Z,17.37
2019-03-13T22:20:35.514Z,17.63
2019-03-13T22:23:05.331Z,19.57
2019-03-13T22:25:35.078Z,18.53
2019-03-13T22:28:04.735Z,13.80
2019-03-13T22:30:34.375Z,25.23
2019-03-13T22:33:05.361Z,19.60
2019-03-13T22:35:34.945Z,16.20
2019-03-13T22:38:04.468Z,20.70
2019-03-13T22:40:35.577Z,18.10
2019-03-13T22:43:05.212Z,14.93
2019-03-13T22:45:35.088Z,18.37
2019-03-13T22:48:04.685Z,19.27
2019-03-13T22:50:34.446Z,18.13
2019-03-13T22:53:04.302Z,18.07
2019-03-13T22:55:33.965Z,18.60
2019-03-13T22:58:03.828Z,17.73
2019-03-13T23:01:21.454Z,20.03
2019-03-13T23:03:51.753Z,16.00
2019-03-13T23:06:21.677Z,22.30
2019-03-13T23:08:51.409Z,20.03
2019-03-13T23:11:21.393Z,19.43
2019-03-13T23:13:51.010Z,17.37
2019-03-13T23:16:23.749Z,20.10
2019-03-13T23:18:52.048Z,14.97
2019-03-13T23:21:21.642Z,17.67
2019-03-13T23:23:51.247Z,19.07
2019-03-13T23:26:20.876Z,18.03
2019-03-13T23:28:50.464Z,18.30
2019-03-13T23:31:20.325Z,20.50
2019-03-13T23:33:49.917Z,16.27
2019-03-13T23:36:19.667Z,15.80
2019-03-13T23:38:49.313Z,28.83
2019-03-13T23:41:19.108Z,23.50
2019-03-13T23:43:49.027Z,15.80
2019-03-13T23:46:18.740Z,19.13
2019-03-13T23:48:48.489Z,17.13
2019-03-13T23:51:18.298Z,22.00
2019-03-13T23:53:47.920Z,16.17
2019-03-13T23:56:17.659Z,18.37
2019-03-13T23:58:49.112Z,17.90
